createdAt,value
2022-12-19T00:01:59.688Z,16.07
2022-12-19T00:04:27.788Z,15.40
2022-12-19T00:06:58.728Z,15.33
2022-12-19T00:09:27.355Z,15.70
2022-12-19T00:11:55.520Z,16.20
2022-12-19T00:14:24.950Z,14.90
2022-12-19T00:16:53.027Z,15.10
2022-12-19T00:19:21.596Z,15.10
2022-12-19T00:21:49.766Z,15.23
2022-12-19T00:24:20.823Z,16.27
2022-12-19T00:26:50.451Z,13.93
2022-12-19T00:29:18.477Z,14.53
2022-12-19T00:35:10.185Z,14.90
2022-12-19T00:37:38.915Z,14.80
2022-12-19T00:40:17.827Z,15.87
2022-12-19T00:42:51.730Z,15.57
2022-12-19T00:45:22.088Z,15.93
2022-12-19T00:48:04.451Z,15.13
2022-12-19T00:50:35.097Z,14.20
2022-12-19T00:53:03.286Z,15.23
2022-12-19T00:55:31.397Z,16.53
2022-12-19T00:57:59.638Z,16.60
2022-12-19T01:00:29.011Z,16.07
2022-12-19T01:02:57.217Z,14.50
2022-12-19T01:05:25.306Z,15.53
2022-12-19T01:07:55.207Z,14.50
2022-12-19T01:10:23.379Z,16.57
2022-12-19T01:12:50.434Z,15.53
2022-12-19T01:15:20.539Z,17.20
2022-12-19T01:17:49.425Z,16.07
2022-12-19T01:20:21.386Z,14.57
2022-12-19T01:23:00.256Z,15.90
2022-12-19T01:25:28.856Z,15.67
2022-12-19T01:27:57.292Z,15.37
2022-12-19T01:30:26.645Z,15.70
2022-12-19T01:32:56.807Z,15.77
2022-12-19T01:35:26.169Z,16.97
2022-12-19T01:38:05.696Z,15.90
2022-12-19T01:40:38.894Z,17.83
2022-12-19T01:43:07.727Z,17.27
2022-12-19T01:45:43.533Z,14.97
2022-12-19T01:48:18.637Z,18.70
2022-12-19T01:51:01.820Z,16.97
2022-12-19T01:53:36.646Z,15.83
2022-12-19T01:56:16.816Z,16.13
2022-12-19T01:58:47.096Z,16.50
2022-12-19T02:01:16.598Z,16.03
2022-12-19T02:03:47.269Z,17.67
2022-12-19T02:06:19.975Z,15.90
2022-12-19T02:08:49.589Z,18.23
2022-12-19T02:11:19.618Z,17.20
2022-12-19T02:13:47.896Z,16.80
2022-12-19T02:16:30.075Z,15.77
2022-12-19T02:19:09.746Z,16.63
2022-12-19T02:21:54.747Z,16.23
2022-12-19T02:25:00.133Z,17.90
2022-12-19T02:27:52.965Z,16.63
2022-12-19T02:30:44.077Z,15.90
2022-12-19T02:33:17.363Z,16.03
2022-12-19T02:35:50.002Z,18.53
2022-12-19T02:38:26.424Z,15.10
2022-12-19T02:41:02.623Z,17.13
2022-12-19T02:43:34.029Z,17.47
2022-12-19T02:46:06.391Z,17.50
2022-12-19T02:48:35.242Z,16.37
2022-12-19T02:51:03.474Z,16.30
2022-12-19T02:53:31.593Z,16.00
2022-12-19T02:56:30.530Z,16.87
2022-12-19T02:59:14.645Z,16.23
2022-12-19T03:01:50.290Z,16.37
2022-12-19T03:04:31.692Z,17.30
2022-12-19T03:07:07.669Z,16.50
2022-12-19T03:09:42.186Z,16.37
2022-12-19T03:12:17.981Z,16.53
2022-12-19T03:14:48.279Z,15.67
2022-12-19T03:17:18.657Z,16.60
2022-12-19T03:19:46.871Z,16.30
2022-12-19T03:22:15.030Z,15.67
2022-12-19T03:24:43.233Z,15.97
2022-12-19T03:27:15.709Z,16.57
2022-12-19T03:29:48.539Z,17.50
2022-12-19T03:32:21.574Z,16.90
2022-12-19T03:34:53.830Z,17.30
2022-12-19T03:37:25.452Z,17.47
2022-12-19T03:40:01.347Z,17.43
2022-12-19T03:42:49.049Z,17.43
2022-12-19T03:45:23.455Z,18.40
2022-12-19T03:47:58.480Z,15.63
2022-12-19T03:50:33.161Z,16.70
2022-12-19T03:53:12.626Z,17.47
2022-12-19T03:55:48.475Z,16.83
2022-12-19T03:58:21.961Z,15.93
2022-12-19T04:00:53.126Z,16.53
2022-12-19T04:03:23.838Z,16.83
2022-12-19T04:05:53.904Z,16.87
2022-12-19T04:08:23.868Z,16.73
2022-12-19T04:10:56.477Z,16.17
2022-12-19T04:13:29.786Z,16.27
2022-12-19T04:16:07.771Z,16.33
2022-12-19T04:18:38.575Z,16.77
2022-12-19T04:21:13.483Z,18.47
2022-12-19T04:23:47.522Z,17.37
2022-12-19T04:26:19.871Z,17.13
2022-12-19T04:28:51.446Z,17.20
2022-12-19T04:31:21.150Z,17.70
2022-12-19T04:33:51.113Z,17.70
2022-12-19T04:36:19.467Z,16.90
2022-12-19T04:38:47.594Z,17.87
2022-12-19T04:41:15.697Z,18.03
2022-12-19T04:43:43.970Z,17.73
2022-12-19T04:46:12.214Z,16.33
2022-12-19T04:48:40.366Z,16.27
2022-12-19T04:51:10.642Z,18.00
2022-12-19T04:53:39.153Z,17.07
2022-12-19T04:56:08.748Z,18.10
2022-12-19T04:58:36.934Z,16.57
2022-12-19T05:01:06.250Z,16.93
2022-12-19T05:03:35.043Z,17.37
2022-12-19T05:06:08.200Z,16.27
2022-12-19T05:08:38.483Z,18.10
2022-12-19T05:11:07.805Z,18.43
2022-12-19T05:13:36.277Z,18.27
2022-12-19T05:16:07.566Z,16.53
2022-12-19T05:18:36.685Z,16.97
2022-12-19T05:21:05.504Z,17.03
2022-12-19T05:23:34.267Z,17.53
2022-12-19T05:26:09.583Z,17.43
2022-12-19T05:28:37.638Z,16.77
2022-12-19T05:31:07.755Z,17.27
2022-12-19T05:33:36.310Z,17.83
2022-12-19T05:36:04.894Z,18.47
2022-12-19T05:38:33.239Z,15.90
2022-12-19T05:41:01.714Z,17.17
2022-12-19T05:43:31.994Z,18.83
2022-12-19T05:46:00.612Z,18.93
2022-12-19T05:48:29.050Z,18.00
2022-12-19T05:50:57.299Z,20.00
2022-12-19T05:53:27.530Z,17.97
2022-12-19T05:56:04.950Z,18.20
2022-12-19T05:58:34.652Z,17.17
2022-12-19T06:01:04.308Z,18.37
2022-12-19T06:03:32.462Z,18.40
2022-12-19T06:06:04.478Z,17.77
2022-12-19T06:08:33.448Z,17.03
2022-12-19T06:11:01.754Z,18.93
2022-12-19T06:13:31.481Z,18.03
2022-12-19T06:16:01.844Z,17.87
2022-12-19T06:18:30.727Z,18.90
2022-12-19T06:21:00.461Z,16.37
2022-12-19T06:23:30.275Z,17.80
2022-12-19T06:25:59.060Z,18.30
2022-12-19T06:28:27.839Z,16.87
2022-12-19T06:30:57.314Z,16.80
2022-12-19T06:33:30.328Z,16.80
2022-12-19T06:36:01.846Z,17.63
2022-12-19T06:38:30.697Z,17.33
2022-12-19T06:41:16.231Z,16.53
2022-12-19T06:43:46.916Z,16.73
2022-12-19T06:46:17.484Z,18.13
2022-12-19T06:48:47.328Z,17.37
2022-12-19T06:51:15.670Z,17.37
2022-12-19T06:53:44.131Z,16.33
2022-12-19T06:56:14.392Z,17.13
2022-12-19T06:58:42.633Z,16.13
2022-12-19T07:01:18.267Z,17.83
2022-12-19T07:03:49.336Z,17.57
2022-12-19T07:06:18.687Z,17.50
2022-12-19T07:08:47.149Z,15.97
2022-12-19T07:11:15.534Z,16.63
2022-12-19T07:13:43.545Z,16.23
2022-12-19T07:16:12.048Z,16.57
2022-12-19T07:18:41.821Z,16.67
2022-12-19T07:21:12.403Z,13.67
2022-12-19T07:23:42.001Z,16.40
2022-12-19T07:26:10.215Z,17.33
2022-12-19T07:28:38.890Z,16.33
2022-12-19T07:31:07.193Z,15.30
2022-12-19T07:33:35.307Z,15.47
2022-12-19T07:36:03.427Z,15.97
2022-12-19T07:38:33.102Z,16.70
2022-12-19T07:41:02.671Z,15.47
2022-12-19T07:43:31.040Z,16.23
2022-12-19T07:45:59.302Z,15.53
2022-12-19T07:48:28.798Z,14.90
2022-12-19T07:50:57.008Z,15.43
2022-12-19T07:53:25.519Z,16.23
2022-12-19T07:55:55.095Z,16.60
2022-12-19T07:58:23.322Z,15.63
2022-12-19T08:00:56.239Z,16.17
2022-12-19T08:03:24.610Z,18.23
2022-12-19T08:05:52.761Z,15.23
2022-12-19T08:08:21.421Z,16.80
2022-12-19T08:10:49.523Z,16.43
2022-12-19T08:13:19.684Z,15.37
2022-12-19T08:15:47.771Z,16.07
2022-12-19T08:18:15.869Z,17.30
2022-12-19T08:20:47.419Z,15.70
2022-12-19T08:23:15.507Z,17.80
2022-12-19T08:25:43.705Z,15.47
2022-12-19T08:28:11.747Z,15.83
2022-12-19T08:30:41.907Z,15.93
2022-12-19T08:33:09.975Z,16.03
2022-12-19T08:35:38.002Z,14.80
2022-12-19T08:38:06.551Z,16.53
2022-12-19T08:40:35.324Z,15.80
2022-12-19T08:43:03.384Z,15.23
2022-12-19T08:45:31.391Z,15.37
2022-12-19T08:48:00.893Z,16.10
2022-12-19T08:50:28.865Z,14.13
2022-12-19T08:52:56.944Z,15.47
2022-12-19T08:55:25.659Z,14.47
2022-12-19T08:57:58.932Z,13.80
2022-12-19T09:00:29.962Z,14.47
2022-12-19T09:02:58.390Z,14.27
2022-12-19T09:05:58.413Z,15.10
2022-12-19T09:08:16.829Z,14.17
2022-12-19T09:10:45.077Z,13.27
2022-12-19T09:13:13.651Z,12.90
2022-12-19T09:15:42.161Z,14.07
2022-12-19T09:18:10.426Z,13.53
2022-12-19T09:20:42.853Z,14.67
2022-12-19T09:23:11.270Z,15.23
2022-12-19T09:25:40.474Z,13.77
2022-12-19T09:28:27.599Z,14.43
2022-12-19T09:30:58.768Z,12.27
2022-12-19T09:33:28.621Z,13.53
2022-12-19T09:36:00.887Z,12.80
2022-12-19T09:38:32.198Z,12.20
2022-12-19T09:41:36.457Z,13.37
2022-12-19T09:44:17.627Z,11.60
2022-12-19T09:46:51.967Z,12.50
2022-12-19T09:49:25.606Z,13.47
2022-12-19T09:52:06.011Z,14.97
2022-12-19T09:54:40.353Z,14.90
2022-12-19T09:57:16.573Z,14.23
2022-12-19T09:59:50.235Z,14.40
2022-12-19T10:02:34.768Z,13.97
2022-12-19T10:05:37.970Z,13.33
2022-12-19T10:08:09.460Z,13.27
2022-12-19T10:12:41.098Z,14.20
2022-12-19T10:13:57.824Z,14.17
2022-12-19T10:16:39.441Z,14.43
2022-12-19T10:19:11.295Z,14.17
2022-12-19T10:22:19.408Z,13.80
2022-12-19T10:25:08.556Z,13.97
2022-12-19T10:27:59.311Z,11.90
2022-12-19T10:30:32.211Z,13.47
2022-12-19T10:33:11.652Z,14.43
2022-12-19T10:35:49.420Z,14.60
2022-12-19T10:38:26.879Z,14.10
2022-12-19T10:41:13.415Z,13.37
2022-12-19T10:43:54.568Z,13.93
2022-12-19T10:46:41.887Z,14.70
2022-12-19T10:49:16.876Z,14.40
2022-12-19T10:51:56.472Z,12.83
2022-12-19T10:54:37.241Z,14.13
2022-12-19T10:57:25.500Z,14.33
2022-12-19T10:59:59.333Z,13.63
2022-12-19T11:02:44.653Z,13.33
2022-12-19T11:05:28.407Z,14.53
2022-12-19T11:08:05.605Z,16.07
2022-12-19T11:11:40.350Z,16.23
2022-12-19T11:19:27.895Z,14.53
2022-12-19T11:23:16.897Z,14.70
2022-12-19T11:29:18.922Z,15.30
2022-12-19T11:30:05.879Z,12.90
2022-12-19T11:30:41.453Z,12.83
2022-12-19T11:30:59.586Z,14.00
2022-12-19T11:34:06.750Z,14.70
2022-12-19T11:36:40.776Z,14.40
2022-12-19T11:39:19.188Z,14.67
2022-12-19T11:41:57.164Z,14.37
2022-12-19T11:44:31.465Z,13.97
2022-12-19T11:47:12.976Z,13.73
2022-12-19T11:49:45.578Z,14.53
2022-12-19T11:53:02.415Z,14.40
2022-12-19T11:55:21.677Z,13.67
2022-12-19T11:57:51.106Z,12.47
2022-12-19T12:00:24.456Z,14.53
2022-12-19T12:03:24.376Z,13.77
2022-12-19T12:05:56.640Z,12.33
2022-12-19T12:10:08.891Z,14.03
2022-12-19T12:22:19.209Z,15.00
2022-12-19T12:24:05.031Z,12.53
2022-12-19T12:30:13.747Z,12.67
2022-12-19T12:31:10.540Z,13.80
2022-12-19T12:31:43.269Z,13.70
2022-12-19T12:31:50.628Z,12.70
2022-12-19T12:35:30.455Z,12.97
2022-12-19T12:37:54.152Z,12.27
2022-12-19T12:38:54.432Z,13.50
2022-12-19T12:41:58.153Z,13.93
2022-12-19T12:44:33.103Z,13.37
2022-12-19T12:47:07.407Z,12.60
2022-12-19T12:49:40.493Z,13.43
2022-12-19T12:52:12.534Z,13.07
2022-12-19T12:54:47.466Z,13.30
2022-12-19T12:57:46.617Z,13.23
2022-12-19T13:00:21.805Z,13.53
2022-12-19T13:02:55.668Z,14.83
2022-12-19T13:05:55.533Z,13.50
2022-12-19T13:08:38.179Z,14.47
2022-12-19T13:11:34.153Z,14.53
2022-12-19T13:14:02.591Z,14.63
2022-12-19T13:16:51.039Z,13.40
2022-12-19T13:19:28.000Z,14.17
2022-12-19T13:22:19.284Z,14.40
2022-12-19T13:24:50.436Z,14.47
2022-12-19T13:27:39.801Z,14.23
2022-12-19T13:30:29.749Z,14.17
2022-12-19T13:33:11.935Z,13.17
2022-12-19T13:37:04.089Z,14.73
2022-12-19T13:39:51.849Z,14.13
2022-12-19T13:41:47.260Z,14.03
2022-12-19T13:44:21.885Z,15.53
2022-12-19T13:46:51.632Z,14.47
2022-12-19T13:49:29.542Z,14.63
2022-12-19T13:52:01.523Z,14.03
2022-12-19T13:54:35.382Z,13.27
2022-12-19T13:57:09.601Z,15.00
2022-12-19T13:59:54.356Z,15.43
2022-12-19T14:02:44.272Z,13.90
2022-12-19T14:05:44.506Z,15.47
2022-12-19T14:08:20.997Z,14.23
2022-12-19T14:11:33.562Z,15.33
2022-12-19T14:14:10.193Z,13.70
2022-12-19T14:16:44.367Z,13.80
2022-12-19T14:19:24.295Z,15.97
2022-12-19T14:22:10.855Z,14.23
2022-12-19T14:24:41.646Z,15.23
2022-12-19T14:28:19.133Z,14.90
2022-12-19T14:30:28.719Z,13.93
2022-12-19T14:33:47.101Z,14.77
2022-12-19T14:36:10.212Z,16.00
2022-12-19T14:39:24.341Z,14.73
2022-12-19T14:42:01.734Z,15.23
2022-12-19T14:53:51.488Z,16.13
2022-12-19T14:54:31.033Z,15.03
2022-12-19T14:54:37.409Z,15.23
2022-12-19T14:56:57.558Z,14.80
2022-12-19T14:59:46.241Z,15.77
2022-12-19T15:02:32.848Z,15.23
2022-12-19T15:05:07.061Z,14.97
2022-12-19T15:07:38.526Z,14.13
2022-12-19T15:11:05.267Z,16.47
2022-12-19T15:14:58.507Z,15.87
2022-12-19T15:16:30.379Z,14.50
2022-12-19T15:19:00.556Z,16.13
2022-12-19T15:21:30.363Z,16.33
2022-12-19T15:24:01.368Z,15.20
2022-12-19T15:26:33.448Z,14.83
2022-12-19T15:29:02.330Z,16.37
2022-12-19T15:31:35.850Z,15.93
2022-12-19T15:34:35.096Z,17.33
2022-12-19T15:37:06.132Z,16.10
2022-12-19T15:39:37.849Z,16.70
2022-12-19T15:42:08.967Z,17.33
2022-12-19T15:44:40.656Z,17.03
2022-12-19T15:47:17.760Z,17.47
2022-12-19T15:49:46.999Z,18.43
2022-12-19T15:52:19.562Z,17.67
2022-12-19T15:54:51.478Z,18.53
2022-12-19T15:57:30.461Z,17.27
2022-12-19T16:00:01.986Z,18.43
2022-12-19T16:03:04.418Z,18.80
2022-12-19T16:05:23.701Z,19.30
2022-12-19T16:07:52.894Z,20.17
2022-12-19T16:10:23.969Z,19.70
2022-12-19T16:12:55.616Z,20.53
2022-12-19T16:15:28.935Z,20.37
2022-12-19T16:17:59.221Z,19.63
2022-12-19T16:20:29.135Z,20.50
2022-12-19T16:22:57.680Z,20.73
2022-12-19T16:25:35.201Z,21.43
2022-12-19T16:28:05.779Z,21.07
2022-12-19T16:30:36.291Z,21.53
2022-12-19T16:33:04.694Z,22.07
2022-12-19T16:36:02.967Z,21.27
2022-12-19T16:38:23.304Z,23.33
2022-12-19T16:40:54.171Z,20.90
2022-12-19T16:43:30.000Z,21.27
2022-12-19T16:46:01.768Z,23.07
2022-12-19T16:48:35.615Z,23.20
2022-12-19T16:51:11.144Z,20.67
2022-12-19T16:53:42.499Z,22.37
2022-12-19T16:56:22.539Z,21.70
2022-12-19T16:58:51.601Z,22.33
2022-12-19T17:01:29.342Z,22.40
2022-12-19T17:06:46.773Z,23.90
2022-12-19T17:09:16.818Z,22.83
2022-12-19T17:11:50.523Z,23.20
2022-12-19T17:14:21.321Z,23.63
2022-12-19T17:16:55.327Z,22.27
2022-12-19T17:19:27.813Z,23.93
2022-12-19T17:22:04.868Z,23.27
2022-12-19T17:24:40.925Z,24.20
2022-12-19T17:27:10.778Z,22.97
2022-12-19T17:29:39.950Z,24.20
2022-12-19T17:32:10.403Z,23.70
2022-12-19T17:34:40.023Z,24.67
2022-12-19T17:37:10.917Z,25.43
2022-12-19T17:39:42.160Z,24.03
2022-12-19T17:42:23.824Z,23.43
2022-12-19T17:44:53.973Z,23.77
2022-12-19T17:47:25.748Z,23.13
2022-12-19T17:49:55.136Z,23.67
2022-12-19T17:52:25.238Z,24.17
2022-12-19T17:54:55.049Z,23.20
2022-12-19T17:57:28.165Z,24.87
2022-12-19T17:59:56.773Z,22.50
2022-12-19T18:02:27.588Z,23.30
2022-12-19T18:04:58.361Z,23.27
2022-12-19T18:07:27.905Z,23.60
2022-12-19T18:09:56.658Z,24.60
2022-12-19T18:12:27.890Z,24.03
2022-12-19T18:14:58.277Z,23.87
2022-12-19T18:17:28.657Z,23.93
2022-12-19T18:20:05.197Z,25.87
2022-12-19T18:22:36.313Z,21.90
2022-12-19T18:25:05.827Z,22.13
2022-12-19T18:27:37.558Z,20.17
2022-12-19T18:30:12.403Z,16.90
2022-12-19T18:32:54.841Z,17.30
2022-12-19T18:35:27.895Z,15.30
2022-12-19T18:37:58.771Z,15.53
2022-12-19T18:41:31.562Z,14.13
2022-12-19T18:46:34.616Z,13.00
2022-12-19T18:49:05.519Z,13.00
2022-12-19T18:51:33.965Z,13.07
2022-12-19T18:54:02.018Z,12.10
2022-12-19T18:56:31.595Z,11.30
2022-12-19T18:59:07.786Z,11.67
2022-12-19T19:01:42.115Z,9.90
2022-12-19T19:04:13.385Z,9.87
2022-12-19T19:06:50.313Z,10.97
2022-12-19T19:09:21.914Z,8.87
2022-12-19T19:11:50.839Z,9.53
2022-12-19T19:14:19.493Z,8.90
2022-12-19T19:16:52.072Z,8.57
2022-12-19T19:19:20.721Z,9.23
2022-12-19T19:21:49.163Z,9.03
2022-12-19T19:24:20.707Z,8.60
2022-12-19T19:26:57.039Z,8.47
2022-12-19T19:35:17.890Z,8.93
2022-12-19T19:37:46.521Z,8.50
2022-12-19T19:40:15.663Z,8.80
2022-12-19T19:42:45.764Z,8.33
2022-12-19T19:45:14.487Z,8.30
2022-12-19T19:47:45.148Z,7.70
2022-12-19T19:50:14.279Z,9.23
2022-12-19T19:52:49.106Z,8.67
2022-12-19T19:55:18.260Z,8.63
2022-12-19T19:57:50.429Z,9.30
2022-12-19T20:00:19.610Z,8.03
2022-12-19T20:03:08.372Z,9.10
2022-12-19T20:05:38.464Z,8.93
2022-12-19T20:08:07.738Z,11.30
2022-12-19T20:10:36.746Z,10.60
2022-12-19T20:13:05.657Z,9.90
2022-12-19T20:15:35.695Z,10.13
2022-12-19T20:18:11.269Z,10.37
2022-12-19T20:20:40.401Z,8.53
2022-12-19T20:23:08.874Z,8.57
2022-12-19T20:25:41.944Z,7.87
2022-12-19T20:28:10.989Z,7.80
2022-12-19T20:30:43.551Z,9.10
2022-12-19T20:33:13.673Z,9.03
2022-12-19T20:35:42.927Z,8.43
2022-12-19T20:38:11.891Z,10.53
2022-12-19T20:44:31.661Z,9.63
2022-12-19T20:47:00.758Z,11.07
2022-12-19T20:55:32.135Z,10.47
2022-12-19T20:58:11.623Z,10.47
2022-12-19T21:00:40.573Z,9.60
2022-12-19T21:08:46.173Z,9.40
2022-12-19T21:12:12.120Z,10.93
2022-12-19T21:14:50.645Z,9.50
2022-12-19T21:19:02.204Z,11.43
2022-12-19T21:21:35.290Z,10.90
2022-12-19T21:24:58.897Z,10.40
2022-12-19T21:28:32.813Z,10.63
2022-12-19T21:32:18.830Z,10.90
2022-12-19T21:38:26.677Z,9.90
2022-12-19T21:40:56.972Z,9.93
2022-12-19T21:43:30.298Z,9.27
2022-12-19T21:46:08.456Z,9.73
2022-12-19T21:48:39.575Z,9.27
2022-12-19T21:51:08.990Z,9.70
2022-12-19T21:53:39.790Z,9.17
2022-12-19T21:56:21.472Z,9.17
2022-12-19T21:58:51.296Z,9.00
2022-12-19T22:01:21.441Z,9.03
2022-12-19T22:03:51.546Z,9.77
2022-12-19T22:06:27.968Z,9.10
2022-12-19T22:08:58.208Z,10.10
2022-12-19T22:11:30.793Z,9.10
2022-12-19T22:14:00.740Z,9.70
2022-12-19T22:16:30.410Z,10.00
2022-12-19T22:19:00.275Z,9.37
2022-12-19T22:24:14.076Z,9.97
2022-12-19T22:26:45.283Z,11.10
2022-12-19T22:29:17.458Z,9.67
2022-12-19T22:31:46.633Z,9.00
2022-12-19T22:34:17.004Z,9.40
2022-12-19T22:36:46.840Z,9.97
2022-12-19T22:39:18.038Z,9.70
2022-12-19T22:41:50.134Z,9.13
2022-12-19T22:44:20.586Z,9.93
2022-12-19T22:46:49.759Z,10.30
2022-12-19T22:49:19.800Z,10.10
2022-12-19T22:51:48.432Z,10.17
2022-12-19T22:54:16.830Z,10.40
2022-12-19T22:56:45.513Z,9.17
2022-12-19T22:59:15.632Z,9.90
2022-12-19T23:01:45.392Z,10.63
2022-12-19T23:04:15.862Z,11.50
2022-12-19T23:06:45.179Z,10.00
2022-12-19T23:09:16.181Z,9.80
2022-12-19T23:11:46.618Z,10.10
2022-12-19T23:14:18.619Z,10.43
2022-12-19T23:16:47.482Z,9.40
2022-12-19T23:19:17.058Z,9.40
2022-12-19T23:21:46.112Z,9.03
2022-12-19T23:24:14.900Z,9.93
2022-12-19T23:26:43.407Z,9.37
2022-12-19T23:29:13.732Z,10.07
2022-12-19T23:31:45.168Z,10.13
2022-12-19T23:34:14.517Z,9.37
2022-12-19T23:37:10.211Z,9.83
2022-12-19T23:39:32.101Z,11.00
2022-12-19T23:42:00.575Z,11.23
2022-12-19T23:44:30.009Z,9.87
2022-12-19T23:47:03.886Z,9.73
2022-12-19T23:49:33.002Z,10.10
2022-12-19T23:52:01.605Z,11.13
2022-12-19T23:54:30.127Z,9.90
2022-12-19T23:56:59.263Z,10.53
2022-12-19T23:59:27.598Z,10.73
